Time;durP1;ratioP1;P1;durP2;ratioP2;P2;SDS_P1;SDS_P2;PMS_P1;PMS_P2;Temp;Humidity;BMP_temperature;BMP_pressure;BME280_temperature;BME280_humidity;BME280_pressure;Samples;Min_cycle;Max_cycle;Signal;HPM_P1;HPM_P2
2023/10/14 00:02:01;;;;;;;6.70;2.30;;;;;;;;;;5066971;28;20040;-79
2023/10/14 00:04:28;;;;;;;10.85;2.40;;;;;;;;;;5094043;28;20036;-77
2023/10/14 00:06:57;;;;;;;12.05;2.85;;;;;;;;;;5076874;28;20035;-77
2023/10/14 00:09:24;;;;;;;8.48;2.00;;;;;;;;;;5077435;28;20037;-77
2023/10/14 00:11:56;;;;;;;9.45;2.83;;;;;;;;;;5077497;28;20107;-78
2023/10/14 00:14:23;;;;;;;5.18;2.08;;;;;;;;;;5076918;28;20044;-79
2023/10/14 00:16:49;;;;;;;7.70;2.20;;;;;;;;;;5076220;28;20028;-78
2023/10/14 00:19:17;;;;;;;13.20;2.60;;;;;;;;;;5077302;28;20060;-77
2023/10/14 00:21:44;;;;;;;6.70;2.35;;;;;;;;;;5077217;28;20039;-78
2023/10/14 00:24:09;;;;;;;7.22;2.53;;;;;;;;;;5077357;28;20032;-79
2023/10/14 00:26:35;;;;;;;7.88;2.28;;;;;;;;;;5078277;28;20029;-78
2023/10/14 00:31:45;;;;;;;6.07;2.60;;;;;;;;;;5095329;28;20029;-79
2023/10/14 00:34:10;;;;;;;12.50;4.75;;;;;;;;;;5079561;28;20048;-79
2023/10/14 00:36:36;;;;;;;9.43;2.58;;;;;;;;;;5083360;28;20021;-78
2023/10/14 00:39:12;;;;;;;5.55;2.20;;;;;;;;;;5089024;28;20433;-78
2023/10/14 00:41:49;;;;;;;10.95;2.60;;;;;;;;;;5074554;28;20035;-77
2023/10/14 00:44:15;;;;;;;14.05;2.30;;;;;;;;;;5091922;28;20031;-77
2023/10/14 00:46:50;;;;;;;10.55;2.22;;;;;;;;;;5086483;28;20495;-79
2023/10/14 00:49:16;;;;;;;9.48;2.75;;;;;;;;;;5078434;28;20032;-79
2023/10/14 00:51:42;;;;;;;10.85;2.40;;;;;;;;;;5077371;28;20495;-79
2023/10/14 00:54:12;;;;;;;13.40;2.50;;;;;;;;;;5059260;28;20029;-77
2023/10/14 00:56:46;;;;;;;11.57;2.60;;;;;;;;;;5090154;28;20070;-78
2023/10/14 00:59:15;;;;;;;8.57;3.38;;;;;;;;;;5077148;28;20067;-78
2023/10/14 01:01:55;;;;;;;5.45;2.20;;;;;;;;;;5061013;28;20020;-79
2023/10/14 01:04:21;;;;;;;7.40;2.63;;;;;;;;;;5078610;28;20538;-78
2023/10/14 01:06:56;;;;;;;11.07;2.58;;;;;;;;;;5060862;28;20031;-78
2023/10/14 01:09:31;;;;;;;9.73;2.42;;;;;;;;;;5078533;28;20049;-78
2023/10/14 01:11:58;;;;;;;6.05;2.20;;;;;;;;;;5076655;28;20020;-77
2023/10/14 01:14:24;;;;;;;9.45;2.80;;;;;;;;;;5078435;28;20024;-79
2023/10/14 01:16:52;;;;;;;13.90;3.37;;;;;;;;;;5077867;28;20021;-77
2023/10/14 01:19:22;;;;;;;7.35;2.47;;;;;;;;;;5060816;28;20054;-79
2023/10/14 01:21:51;;;;;;;9.40;2.63;;;;;;;;;;5076424;28;20024;-78
2023/10/14 01:24:21;;;;;;;7.20;2.35;;;;;;;;;;5077261;28;20047;-78
2023/10/14 01:26:56;;;;;;;14.88;2.70;;;;;;;;;;5060185;28;20029;-78
2023/10/14 01:29:30;;;;;;;8.45;2.75;;;;;;;;;;5076565;28;20055;-78
2023/10/14 01:32:10;;;;;;;7.45;2.90;;;;;;;;;;5076656;28;20020;-78
2023/10/14 01:34:42;;;;;;;9.48;2.80;;;;;;;;;;5077035;28;20024;-78
2023/10/14 01:37:18;;;;;;;8.05;2.95;;;;;;;;;;5075284;28;20078;-79
2023/10/14 01:39:49;;;;;;;8.73;2.72;;;;;;;;;;5058518;28;20036;-78
2023/10/14 01:42:16;;;;;;;13.98;3.05;;;;;;;;;;5074721;28;20032;-80
2023/10/14 01:44:41;;;;;;;14.60;3.15;;;;;;;;;;5074181;28;20113;-77
2023/10/14 01:47:08;;;;;;;16.27;3.33;;;;;;;;;;5074227;28;20032;-78
2023/10/14 01:49:36;;;;;;;11.30;3.00;;;;;;;;;;5075474;28;20036;-78
2023/10/14 01:52:06;;;;;;;8.02;2.95;;;;;;;;;;5094464;28;20035;-77
2023/10/14 01:54:32;;;;;;;13.10;3.30;;;;;;;;;;5096493;28;20025;-78
2023/10/14 01:56:59;;;;;;;9.98;2.97;;;;;;;;;;5095670;28;20028;-78
2023/10/14 01:59:27;;;;;;;9.75;2.60;;;;;;;;;;5093841;28;20035;-78
2023/10/14 02:01:57;;;;;;;;;;;;;;;;;;5094642;28;20460;-77
2023/10/14 02:04:23;;;;;;;8.80;3.05;;;;;;;;;;5094249;28;19953;-77
2023/10/14 02:07:02;;;;;;;6.88;2.85;;;;;;;;;;5094274;28;20407;-79
2023/10/14 02:09:30;;;;;;;8.02;2.70;;;;;;;;;;5077541;28;20531;-78
2023/10/14 02:11:56;;;;;;;8.63;2.85;;;;;;;;;;5096159;28;20046;-78
2023/10/14 02:14:22;;;;;;;13.18;2.97;;;;;;;;;;5095861;28;20345;-78
2023/10/14 02:16:48;;;;;;;6.88;3.00;;;;;;;;;;5095618;28;20020;-78
2023/10/14 02:21:57;;;;;;;11.07;3.03;;;;;;;;;;5096853;28;20111;-78
2023/10/14 02:24:27;;;;;;;8.52;2.80;;;;;;;;;;5095209;28;20107;-79
2023/10/14 02:26:54;;;;;;;10.65;3.05;;;;;;;;;;5100519;28;20051;-79
2023/10/14 02:29:19;;;;;;;12.23;3.10;;;;;;;;;;5106892;28;20035;-78
2023/10/14 02:31:45;;;;;;;9.88;3.05;;;;;;;;;;5116841;28;20020;-79
2023/10/14 02:34:14;;;;;;;7.07;2.85;;;;;;;;;;5116942;28;20040;-79
2023/10/14 02:36:50;;;;;;;12.05;3.03;;;;;;;;;;5100427;28;20039;-78
2023/10/14 02:39:16;;;;;;;9.95;3.00;;;;;;;;;;5099597;28;20040;-78
2023/10/14 02:41:58;;;;;;;8.90;3.55;;;;;;;;;;5116573;28;20119;-78
2023/10/14 02:44:28;;;;;;;11.02;3.83;;;;;;;;;;5111100;28;20028;-79
2023/10/14 02:46:54;;;;;;;13.65;3.42;;;;;;;;;;5097964;28;20054;-78
2023/10/14 02:49:24;;;;;;;11.32;3.28;;;;;;;;;;5095922;28;20024;-77
2023/10/14 02:51:52;;;;;;;12.05;3.72;;;;;;;;;;5073264;28;20029;-76
2023/10/14 02:54:27;;;;;;;9.48;2.78;;;;;;;;;;5057497;28;20538;-78
2023/10/14 02:59:19;;;;;;;13.77;3.50;;;;;;;;;;5093275;28;20048;-79
2023/10/14 03:02:09;;;;;;;9.15;3.22;;;;;;;;;;5081696;28;20081;-77
2023/10/14 03:04:39;;;;;;;13.75;3.17;;;;;;;;;;5080352;28;20028;-78
2023/10/14 03:07:08;;;;;;;8.18;3.80;;;;;;;;;;5098030;28;20399;-80
2023/10/14 03:09:34;;;;;;;10.00;3.38;;;;;;;;;;5099138;28;20100;-78
2023/10/14 03:12:00;;;;;;;9.75;3.63;;;;;;;;;;5112965;28;20036;-79
2023/10/14 03:14:27;;;;;;;9.73;3.53;;;;;;;;;;5108255;28;20028;-78
2023/10/14 03:16:52;;;;;;;9.93;3.38;;;;;;;;;;5098368;28;20445;-77
2023/10/14 03:19:18;;;;;;;9.77;4.05;;;;;;;;;;5076533;28;20103;-77
2023/10/14 03:21:58;;;;;;;8.25;3.20;;;;;;;;;;5078048;28;20135;-78
2023/10/14 03:24:30;;;;;;;10.25;3.17;;;;;;;;;;5092555;28;20031;-78
2023/10/14 03:27:04;;;;;;;12.13;3.15;;;;;;;;;;5095023;28;20032;-78
2023/10/14 03:29:29;;;;;;;9.50;3.38;;;;;;;;;;5093890;28;20119;-77
2023/10/14 03:31:56;;;;;;;8.93;3.30;;;;;;;;;;5095196;28;20047;-78
2023/10/14 03:34:25;;;;;;;11.57;3.63;;;;;;;;;;5081024;28;20031;-79
2023/10/14 03:37:00;;;;;;;10.93;3.65;;;;;;;;;;5098793;28;20558;-79
2023/10/14 03:39:51;;;;;;;13.00;3.50;;;;;;;;;;5099125;28;20032;-77
2023/10/14 03:42:16;;;;;;;10.70;2.75;;;;;;;;;;5098122;28;20036;-77
2023/10/14 03:44:42;;;;;;;10.00;3.45;;;;;;;;;;5097831;28;20078;-79
2023/10/14 03:47:17;;;;;;;7.38;3.33;;;;;;;;;;5097440;28;20034;-79
2023/10/14 03:49:55;;;;;;;8.70;3.97;;;;;;;;;;5098552;28;20046;-77
2023/10/14 03:52:22;;;;;;;9.38;3.38;;;;;;;;;;5077765;28;20028;-77
2023/10/14 03:54:50;;;;;;;11.50;3.25;;;;;;;;;;5059889;28;20050;-77
2023/10/14 03:57:17;;;;;;;9.77;3.30;;;;;;;;;;5076480;28;20039;-79
2023/10/14 03:59:46;;;;;;;10.57;3.00;;;;;;;;;;5077055;28;20127;-77
2023/10/14 04:02:15;;;;;;;6.50;3.03;;;;;;;;;;5079333;28;20491;-78
2023/10/14 04:04:42;;;;;;;;;;;;;;;;;;5080121;28;20084;-78
2023/10/14 04:09:44;;;;;;;13.02;4.22;;;;;;;;;;5078698;28;20088;-78
2023/10/14 04:12:28;;;;;;;8.82;3.13;;;;;;;;;;5078383;28;20563;-78
2023/10/14 04:14:54;;;;;;;9.77;3.10;;;;;;;;;;5077636;28;20032;-78
2023/10/14 04:17:30;;;;;;;8.50;3.30;;;;;;;;;;5077354;28;20066;-78
2023/10/14 04:22:40;;;;;;;10.38;3.40;;;;;;;;;;5059464;28;20112;-78
2023/10/14 04:26:01;;;;;;;7.32;3.15;;;;;;;;;;5076126;28;20036;-78
2023/10/14 04:31:00;;;;;;;12.48;3.28;;;;;;;;;;5078497;28;20063;-79
2023/10/14 04:35:56;;;;;;;8.63;3.03;;;;;;;;;;5076342;28;20028;-79
2023/10/14 04:38:28;;;;;;;14.98;4.10;;;;;;;;;;5077654;28;20032;-78
2023/10/14 04:40:53;;;;;;;10.27;4.20;;;;;;;;;;5077308;28;20115;-77
2023/10/14 04:43:37;;;;;;;10.60;3.40;;;;;;;;;;5077154;28;20068;-78
2023/10/14 04:51:08;;;;;;;10.75;3.65;;;;;;;;;;5083211;28;20070;-79
2023/10/14 04:53:34;;;;;;;14.95;4.30;;;;;;;;;;5083526;28;20032;-77
2023/10/14 04:56:04;;;;;;;10.98;3.95;;;;;;;;;;5083434;28;20396;-78
2023/10/14 04:58:32;;;;;;;9.57;4.10;;;;;;;;;;5083390;28;20089;-78
2023/10/14 05:01:00;;;;;;;9.88;3.63;;;;;;;;;;5085042;28;20040;-78
2023/10/14 05:03:29;;;;;;;9.95;3.72;;;;;;;;;;5084233;28;20657;-80
2023/10/14 05:06:14;;;;;;;9.95;3.63;;;;;;;;;;5086355;28;20040;-78
2023/10/14 05:08:47;;;;;;;20.17;3.60;;;;;;;;;;5090180;28;20025;-78
2023/10/14 05:11:13;;;;;;;10.50;4.03;;;;;;;;;;5091189;28;20028;-78
2023/10/14 05:13:44;;;;;;;11.02;3.83;;;;;;;;;;5074950;28;20029;-78
2023/10/14 05:16:20;;;;;;;10.68;3.38;;;;;;;;;;5095919;28;20028;-77
2023/10/14 05:19:07;;;;;;;12.82;3.85;;;;;;;;;;5091240;28;20071;-78
2023/10/14 05:21:36;;;;;;;7.18;3.30;;;;;;;;;;5092389;28;20031;-79
2023/10/14 05:24:03;;;;;;;13.93;3.50;;;;;;;;;;5094411;28;20062;-79
2023/10/14 05:26:36;;;;;;;10.95;4.30;;;;;;;;;;5095597;28;20021;-78
2023/10/14 05:29:11;;;;;;;17.08;3.80;;;;;;;;;;5060789;28;20028;-78
2023/10/14 05:31:37;;;;;;;12.48;3.78;;;;;;;;;;5090445;28;20040;-78
2023/10/14 05:34:04;;;;;;;12.02;3.97;;;;;;;;;;5087074;28;20025;-78
2023/10/14 05:36:32;;;;;;;10.63;3.80;;;;;;;;;;5083509;28;20024;-78
2023/10/14 05:39:02;;;;;;;30.67;5.80;;;;;;;;;;5082727;28;20257;-78
2023/10/14 05:41:31;;;;;;;14.93;4.90;;;;;;;;;;5077039;28;20036;-77
2023/10/14 05:43:56;;;;;;;11.50;4.65;;;;;;;;;;5076456;28;20108;-79
2023/10/14 05:46:23;;;;;;;6.15;2.83;;;;;;;;;;5059904;28;20075;-77
2023/10/14 05:48:53;;;;;;;6.55;1.85;;;;;;;;;;5075850;28;20024;-78
2023/10/14 05:51:18;;;;;;;6.18;2.10;;;;;;;;;;5076816;28;20094;-77
2023/10/14 05:53:46;;;;;;;11.55;2.08;;;;;;;;;;5058227;28;20499;-79
2023/10/14 05:56:15;;;;;;;4.72;1.73;;;;;;;;;;5074648;28;20444;-79
2023/10/14 05:58:41;;;;;;;7.45;2.05;;;;;;;;;;5058128;28;20553;-77
2023/10/14 06:01:10;;;;;;;9.80;2.72;;;;;;;;;;5059174;28;20224;-79
2023/10/14 06:03:41;;;;;;;4.28;1.60;;;;;;;;;;5075027;28;20036;-77
2023/10/14 06:06:16;;;;;;;5.80;1.85;;;;;;;;;;5074900;28;20032;-76
2023/10/14 06:08:49;;;;;;;5.07;1.70;;;;;;;;;;5074588;28;20035;-77
2023/10/14 06:11:18;;;;;;;9.07;1.80;;;;;;;;;;5074147;28;20419;-78
2023/10/14 06:13:43;;;;;;;6.22;1.42;;;;;;;;;;5075616;28;20028;-78
2023/10/14 06:16:12;;;;;;;5.70;1.42;;;;;;;;;;5074515;28;20024;-78
2023/10/14 06:18:38;;;;;;;3.17;1.85;;;;;;;;;;5041574;28;20028;-78
2023/10/14 06:21:06;;;;;;;5.47;1.75;;;;;;;;;;5075472;28;20024;-78
2023/10/14 06:23:32;;;;;;;4.50;1.40;;;;;;;;;;5074034;28;20034;-78
2023/10/14 06:25:57;;;;;;;3.80;1.20;;;;;;;;;;5077961;28;20052;-78
2023/10/14 06:28:27;;;;;;;3.75;1.08;;;;;;;;;;5066475;28;20464;-77
2023/10/14 06:30:53;;;;;;;2.97;1.17;;;;;;;;;;5096255;28;20055;-78
2023/10/14 06:33:26;;;;;;;2.63;0.90;;;;;;;;;;5080942;28;20012;-78
2023/10/14 06:35:52;;;;;;;1.50;0.65;;;;;;;;;;5079704;28;20483;-78
2023/10/14 06:38:19;;;;;;;5.32;1.00;;;;;;;;;;5078585;28;20051;-78
2023/10/14 06:40:54;;;;;;;1.88;0.50;;;;;;;;;;5058690;28;20043;-78
2023/10/14 06:43:22;;;;;;;2.45;0.55;;;;;;;;;;5074363;28;20047;-78
2023/10/14 06:45:51;;;;;;;1.35;0.57;;;;;;;;;;5057207;28;20086;-78
2023/10/14 06:48:16;;;;;;;4.28;0.60;;;;;;;;;;5057007;28;20032;-78
2023/10/14 06:50:42;;;;;;;1.25;0.57;;;;;;;;;;5072421;28;20035;-77
2023/10/14 06:53:08;;;;;;;7.03;0.98;;;;;;;;;;5072335;28;20488;-76
2023/10/14 06:55:37;;;;;;;2.38;0.60;;;;;;;;;;5072072;28;20086;-77
2023/10/14 06:58:06;;;;;;;2.13;0.55;;;;;;;;;;5073170;28;20029;-76
2023/10/14 07:00:32;;;;;;;1.38;0.50;;;;;;;;;;5076294;28;20028;-77
2023/10/14 07:03:00;;;;;;;3.15;0.63;;;;;;;;;;5042077;28;20031;-77
2023/10/14 07:05:29;;;;;;;2.13;0.60;;;;;;;;;;5076393;28;20025;-77
2023/10/14 07:07:55;;;;;;;;;;;;;;;;;;5077449;28;20044;-77
2023/10/14 07:10:27;;;;;;;1.25;0.50;;;;;;;;;;5078146;28;19912;-77
2023/10/14 07:13:00;;;;;;;2.92;0.60;;;;;;;;;;5060569;28;20039;-76
2023/10/14 07:15:32;;;;;;;4.20;0.82;;;;;;;;;;5078309;28;20016;-76
2023/10/14 07:17:58;;;;;;;3.33;0.82;;;;;;;;;;5059409;28;20112;-77
2023/10/14 07:20:30;;;;;;;3.72;1.25;;;;;;;;;;5075839;28;20036;-77
2023/10/14 07:23:00;;;;;;;5.18;0.80;;;;;;;;;;5059380;28;20035;-78
2023/10/14 07:25:36;;;;;;;1.67;0.52;;;;;;;;;;5075242;28;20020;-77
2023/10/14 07:28:07;;;;;;;2.97;0.93;;;;;;;;;;5059820;28;20089;-78
2023/10/14 07:30:35;;;;;;;1.77;0.80;;;;;;;;;;5078130;28;20032;-78
2023/10/14 07:33:03;;;;;;;3.53;0.95;;;;;;;;;;5080843;28;20031;-78
2023/10/14 07:35:28;;;;;;;2.97;1.00;;;;;;;;;;5062401;28;20074;-79
2023/10/14 07:37:54;;;;;;;3.05;0.80;;;;;;;;;;5063050;28;20024;-77
2023/10/14 07:40:23;;;;;;;2.22;0.93;;;;;;;;;;5077821;28;20032;-77
2023/10/14 07:42:52;;;;;;;2.55;0.75;;;;;;;;;;5059022;28;20483;-76
2023/10/14 07:45:18;;;;;;;2.83;0.82;;;;;;;;;;5075382;28;20395;-78
2023/10/14 07:47:44;;;;;;;1.83;0.80;;;;;;;;;;5076342;28;20119;-78
2023/10/14 07:50:11;;;;;;;4.32;1.10;;;;;;;;;;5061870;28;20078;-77
2023/10/14 07:52:36;;;;;;;4.60;1.52;;;;;;;;;;5060911;28;20047;-77
2023/10/14 07:55:03;;;;;;;4.85;1.05;;;;;;;;;;5048973;28;20017;-78
2023/10/14 07:57:32;;;;;;;6.70;1.25;;;;;;;;;;5058387;28;20024;-77
2023/10/14 08:00:09;;;;;;;4.43;1.65;;;;;;;;;;5080751;28;20062;-77
2023/10/14 08:02:39;;;;;;;4.32;1.75;;;;;;;;;;5099333;28;20020;-77
2023/10/14 08:05:07;;;;;;;4.07;1.08;;;;;;;;;;5082061;28;20040;-78
2023/10/14 08:07:40;;;;;;;4.95;1.25;;;;;;;;;;5097687;28;20028;-78
2023/10/14 08:10:21;;;;;;;6.53;1.92;;;;;;;;;;5094412;28;20052;-78
2023/10/14 08:12:50;;;;;;;5.18;1.50;;;;;;;;;;5080017;28;20025;-78
2023/10/14 08:15:17;;;;;;;5.70;1.25;;;;;;;;;;5077148;28;20498;-77
2023/10/14 08:17:43;;;;;;;5.63;1.85;;;;;;;;;;5058022;28;20026;-79
2023/10/14 08:20:17;;;;;;;5.97;1.48;;;;;;;;;;5075011;28;20040;-77
2023/10/14 08:22:47;;;;;;;6.68;1.50;;;;;;;;;;5074709;28;20084;-78
2023/10/14 08:25:18;;;;;;;2.95;1.02;;;;;;;;;;5074728;28;20029;-76
2023/10/14 08:27:45;;;;;;;4.07;1.30;;;;;;;;;;5091367;28;20468;-78
2023/10/14 08:30:11;;;;;;;3.78;1.00;;;;;;;;;;5059250;28;20025;-77
2023/10/14 08:32:39;;;;;;;3.60;1.48;;;;;;;;;;5078185;28;20029;-78
2023/10/14 08:35:14;;;;;;;5.90;1.38;;;;;;;;;;5061298;28;20366;-77
2023/10/14 08:37:41;;;;;;;4.57;1.20;;;;;;;;;;5077411;28;20058;-77
2023/10/14 08:40:08;;;;;;;5.15;1.20;;;;;;;;;;5080248;28;20039;-77
2023/10/14 08:42:35;;;;;;;4.55;1.10;;;;;;;;;;5065049;28;20052;-78
2023/10/14 08:45:04;;;;;;;6.90;1.40;;;;;;;;;;5049977;28;20041;-77
2023/10/14 08:47:33;;;;;;;14.80;3.08;;;;;;;;;;5064770;28;20048;-77
2023/10/14 08:50:00;;;;;;;11.75;2.42;;;;;;;;;;5062216;28;20116;-77
2023/10/14 08:52:26;;;;;;;9.38;1.77;;;;;;;;;;5078285;28;20040;-77
2023/10/14 08:54:52;;;;;;;15.55;2.10;;;;;;;;;;5074314;28;20070;-77
2023/10/14 08:57:18;;;;;;;8.02;1.30;;;;;;;;;;5074923;28;20025;-76
2023/10/14 08:59:44;;;;;;;5.55;1.92;;;;;;;;;;5075117;28;20086;-77
2023/10/14 09:02:12;;;;;;;8.13;1.52;;;;;;;;;;5079549;28;20089;-78
2023/10/14 09:04:39;;;;;;;7.60;1.63;;;;;;;;;;5080530;28;20028;-78
2023/10/14 09:07:12;;;;;;;9.70;1.85;;;;;;;;;;5080126;28;20111;-78
2023/10/14 09:09:37;;;;;;;9.95;1.73;;;;;;;;;;5078363;28;20039;-78
2023/10/14 09:12:10;;;;;;;6.07;1.23;;;;;;;;;;5079584;28;20021;-77
2023/10/14 09:14:37;;;;;;;8.48;1.40;;;;;;;;;;5079354;28;20399;-77
2023/10/14 09:17:09;;;;;;;7.93;1.65;;;;;;;;;;5075925;28;20035;-78
2023/10/14 09:19:48;;;;;;;9.98;2.00;;;;;;;;;;5075031;28;20444;-77
2023/10/14 09:22:22;;;;;;;7.20;2.33;;;;;;;;;;5078307;28;20033;-77
2023/10/14 09:24:49;;;;;;;10.70;1.73;;;;;;;;;;5076922;28;20028;-77
2023/10/14 09:27:16;;;;;;;8.88;1.38;;;;;;;;;;5075568;28;20470;-77
2023/10/14 09:29:42;;;;;;;7.85;1.40;;;;;;;;;;5076369;28;20042;-77
2023/10/14 09:32:08;;;;;;;5.32;1.13;;;;;;;;;;5081846;28;20039;-78
2023/10/14 09:34:34;;;;;;;7.35;1.63;;;;;;;;;;5080992;28;20063;-77
2023/10/14 09:37:10;;;;;;;8.23;1.85;;;;;;;;;;5082519;28;20031;-77
2023/10/14 09:39:39;;;;;;;5.85;1.40;;;;;;;;;;5081464;28;20055;-79
2023/10/14 09:42:11;;;;;;;7.72;1.55;;;;;;;;;;5065611;28;20032;-78
2023/10/14 09:44:39;;;;;;;8.60;1.30;;;;;;;;;;5082869;28;20058;-78
2023/10/14 09:47:10;;;;;;;9.18;1.40;;;;;;;;;;5078484;28;20029;-78
2023/10/14 09:49:37;;;;;;;7.32;1.15;;;;;;;;;;5084144;28;20047;-77
2023/10/14 09:52:03;;;;;;;9.30;1.40;;;;;;;;;;5104438;28;20032;-77
2023/10/14 09:54:30;;;;;;;7.93;1.60;;;;;;;;;;5109726;28;20554;-77
2023/10/14 09:56:55;;;;;;;8.27;2.42;;;;;;;;;;5109748;28;20039;-78
2023/10/14 09:59:24;;;;;;;12.88;1.48;;;;;;;;;;5088273;28;20037;-77
2023/10/14 10:01:50;;;;;;;7.95;1.50;;;;;;;;;;5102183;28;20047;-77
2023/10/14 10:04:21;;;;;;;5.15;1.02;;;;;;;;;;5086226;28;20032;-76
2023/10/14 10:07:07;;;;;;;9.55;1.27;;;;;;;;;;5093577;28;20028;-78
2023/10/14 10:09:39;;;;;;;9.40;1.63;;;;;;;;;;5093666;28;20059;-78
2023/10/14 10:12:08;;;;;;;10.10;1.75;;;;;;;;;;5075563;28;20028;-78
2023/10/14 10:14:42;;;;;;;10.23;1.52;;;;;;;;;;5096465;28;20054;-78
2023/10/14 10:17:11;;;;;;;8.68;1.30;;;;;;;;;;5090697;28;20028;-77
2023/10/14 10:19:55;;;;;;;5.30;1.20;;;;;;;;;;5086853;28;20036;-77
2023/10/14 10:22:21;;;;;;;6.90;1.42;;;;;;;;;;5086596;28;20028;-79
2023/10/14 10:24:46;;;;;;;6.55;1.33;;;;;;;;;;5082632;28;20107;-77
2023/10/14 10:27:12;;;;;;;4.72;0.98;;;;;;;;;;5081006;28;20511;-77
2023/10/14 10:30:08;;;;;;;5.25;1.40;;;;;;;;;;5079771;28;20040;-78
2023/10/14 10:32:33;;;;;;;7.30;1.50;;;;;;;;;;5044038;28;20194;-80
2023/10/14 10:35:05;;;;;;;7.75;1.95;;;;;;;;;;5058247;28;20071;-79
2023/10/14 10:37:35;;;;;;;6.57;1.05;;;;;;;;;;5075213;28;20021;-77
2023/10/14 10:40:05;;;;;;;5.93;1.63;;;;;;;;;;5058928;28;20029;-78
2023/10/14 10:42:31;;;;;;;9.13;1.42;;;;;;;;;;5059546;28;20028;-77
2023/10/14 10:45:00;;;;;;;6.93;1.70;;;;;;;;;;5054682;28;20043;-79
2023/10/14 10:47:25;;;;;;;;;;;;;;;;;;5095427;28;20037;-78
2023/10/14 10:49:53;;;;;;;6.43;1.02;;;;;;;;;;5095075;28;19935;-78
2023/10/14 10:52:21;;;;;;;5.72;1.33;;;;;;;;;;5077925;28;20049;-77
2023/10/14 10:54:46;;;;;;;10.43;1.95;;;;;;;;;;5094317;28;20245;-78
2023/10/14 10:57:13;;;;;;;6.80;2.17;;;;;;;;;;5058536;28;20029;-77
2023/10/14 10:59:39;;;;;;;8.60;1.45;;;;;;;;;;5064067;28;20123;-77
2023/10/14 11:02:11;;;;;;;5.93;1.20;;;;;;;;;;5074813;28;20028;-78
2023/10/14 11:04:38;;;;;;;5.07;1.33;;;;;;;;;;5055074;28;20040;-77
2023/10/14 11:07:08;;;;;;;6.35;1.45;;;;;;;;;;5072278;28;20039;-77
2023/10/14 11:09:42;;;;;;;5.80;1.25;;;;;;;;;;5072217;28;20104;-77
2023/10/14 11:12:09;;;;;;;8.20;1.50;;;;;;;;;;5073642;28;20036;-77
2023/10/14 11:14:35;;;;;;;6.90;1.40;;;;;;;;;;5056899;28;20093;-78
2023/10/14 11:17:00;;;;;;;6.55;1.35;;;;;;;;;;5074147;28;20037;-78
2023/10/14 11:19:30;;;;;;;6.15;1.20;;;;;;;;;;5074193;28;20021;-78
2023/10/14 11:21:58;;;;;;;5.68;1.00;;;;;;;;;;5073243;28;20400;-77
2023/10/14 11:24:24;;;;;;;5.70;1.65;;;;;;;;;;5072682;28;20024;-78
2023/10/14 11:26:50;;;;;;;4.63;1.33;;;;;;;;;;5074105;28;20016;-77
2023/10/14 11:29:15;;;;;;;5.15;1.42;;;;;;;;;;5057282;28;20506;-78
2023/10/14 11:31:44;;;;;;;8.82;1.50;;;;;;;;;;5074074;28;20036;-77
2023/10/14 11:34:13;;;;;;;4.20;1.17;;;;;;;;;;5073990;28;20035;-78
2023/10/14 11:36:42;;;;;;;7.50;1.38;;;;;;;;;;5073065;28;20055;-77
2023/10/14 11:39:13;;;;;;;5.90;1.27;;;;;;;;;;5073829;28;20365;-78
2023/10/14 11:41:39;;;;;;;8.52;1.50;;;;;;;;;;5072457;28;20033;-77
2023/10/14 11:44:05;;;;;;;5.93;1.10;;;;;;;;;;5055092;28;20081;-77
2023/10/14 11:46:30;;;;;;;3.67;1.30;;;;;;;;;;5072041;28;20033;-78
2023/10/14 11:48:56;;;;;;;6.50;1.55;;;;;;;;;;5072096;28;20052;-78
2023/10/14 11:51:21;;;;;;;4.28;1.27;;;;;;;;;;5073615;28;20029;-78
2023/10/14 11:53:50;;;;;;;5.95;1.42;;;;;;;;;;5057341;28;20032;-77
2023/10/14 11:56:16;;;;;;;9.10;1.38;;;;;;;;;;5076231;28;20024;-77
2023/10/14 11:58:42;;;;;;;3.85;1.08;;;;;;;;;;5075989;28;20031;-78
2023/10/14 12:01:09;;;;;;;4.93;1.30;;;;;;;;;;5084768;28;20028;-78
2023/10/14 12:03:35;;;;;;;4.25;1.00;;;;;;;;;;5101266;28;20032;-78
2023/10/14 12:06:07;;;;;;;8.13;1.13;;;;;;;;;;5106195;28;20403;-78
2023/10/14 12:08:39;;;;;;;3.97;0.90;;;;;;;;;;5093148;28;20130;-78
2023/10/14 12:11:05;;;;;;;6.82;1.20;;;;;;;;;;5096331;28;20032;-77
2023/10/14 12:13:31;;;;;;;6.15;1.25;;;;;;;;;;5077881;28;20048;-79
2023/10/14 12:15:56;;;;;;;8.32;1.45;;;;;;;;;;5094933;28;20104;-78
2023/10/14 12:18:22;;;;;;;6.18;1.23;;;;;;;;;;5096015;28;20020;-79
2023/10/14 12:20:48;;;;;;;5.32;0.98;;;;;;;;;;5096899;28;20050;-78
2023/10/14 12:23:14;;;;;;;7.70;1.75;;;;;;;;;;5096264;28;20031;-77
2023/10/14 12:25:39;;;;;;;6.55;1.27;;;;;;;;;;5078584;28;20032;-77
2023/10/14 12:28:05;;;;;;;4.55;1.60;;;;;;;;;;5096875;28;20063;-77
2023/10/14 12:30:42;;;;;;;4.55;1.27;;;;;;;;;;5097135;28;20040;-76
2023/10/14 12:33:08;;;;;;;9.48;1.70;;;;;;;;;;5096360;28;20133;-77
2023/10/14 12:35:34;;;;;;;6.82;1.23;;;;;;;;;;5094789;28;20119;-77
2023/10/14 12:38:00;;;;;;;5.20;0.90;;;;;;;;;;5097110;28;20049;-76
2023/10/14 12:40:29;;;;;;;5.40;1.35;;;;;;;;;;5097146;28;20067;-77
2023/10/14 12:43:00;;;;;;;8.07;1.30;;;;;;;;;;5097280;28;20051;-78
2023/10/14 12:45:26;;;;;;;8.48;1.33;;;;;;;;;;5095864;28;20047;-78
2023/10/14 12:48:09;;;;;;;7.43;1.48;;;;;;;;;;5096118;28;20032;-78
2023/10/14 12:50:40;;;;;;;8.70;1.15;;;;;;;;;;5098342;28;20028;-78
2023/10/14 12:53:09;;;;;;;6.65;1.33;;;;;;;;;;5096285;28;20028;-77
2023/10/14 12:55:36;;;;;;;6.97;1.00;;;;;;;;;;5095933;28;20044;-77
2023/10/14 12:58:02;;;;;;;6.60;1.35;;;;;;;;;;5097640;28;20395;-76
2023/10/14 13:00:31;;;;;;;8.65;1.20;;;;;;;;;;5100105;28;20032;-78
2023/10/14 13:02:57;;;;;;;6.13;1.20;;;;;;;;;;5099955;28;20028;-78
2023/10/14 13:05:25;;;;;;;5.38;1.42;;;;;;;;;;5085740;28;20110;-77
2023/10/14 13:07:53;;;;;;;6.43;1.23;;;;;;;;;;5088156;28;20032;-77
2023/10/14 13:10:19;;;;;;;;;;;;;;;;;;5074800;28;20025;-78
2023/10/14 13:12:49;;;;;;;6.70;1.23;;;;;;;;;;5074187;28;19913;-77
2023/10/14 13:15:28;;;;;;;4.53;1.55;;;;;;;;;;5074815;28;20032;-77
2023/10/14 13:17:57;;;;;;;7.50;1.70;;;;;;;;;;5077971;28;20027;-78
2023/10/14 13:20:29;;;;;;;4.70;1.13;;;;;;;;;;5076833;28;20040;-77
2023/10/14 13:23:03;;;;;;;4.55;1.10;;;;;;;;;;5066466;28;20504;-78
2023/10/14 13:25:30;;;;;;;8.15;1.25;;;;;;;;;;5073102;28;20028;-79
2023/10/14 13:27:55;;;;;;;4.85;1.00;;;;;;;;;;5094226;28;20024;-78
2023/10/14 13:30:25;;;;;;;4.28;1.00;;;;;;;;;;5095724;28;20044;-78
2023/10/14 13:32:52;;;;;;;6.18;1.00;;;;;;;;;;5082923;28;20104;-78
2023/10/14 13:35:17;;;;;;;5.22;0.85;;;;;;;;;;5098205;28;20028;-78
2023/10/14 13:37:43;;;;;;;5.68;1.20;;;;;;;;;;5116117;28;20092;-78
2023/10/14 13:40:09;;;;;;;4.90;1.30;;;;;;;;;;5105564;28;20024;-77
2023/10/14 13:42:35;;;;;;;5.28;1.00;;;;;;;;;;5077830;28;20477;-79
2023/10/14 13:45:04;;;;;;;8.35;1.20;;;;;;;;;;5093894;28;20027;-78
2023/10/14 13:47:30;;;;;;;6.72;1.20;;;;;;;;;;5094155;28;20032;-78
2023/10/14 13:49:58;;;;;;;7.28;1.33;;;;;;;;;;5096154;28;20036;-77
2023/10/14 13:52:26;;;;;;;5.65;1.15;;;;;;;;;;5095515;28;20024;-78
2023/10/14 13:54:53;;;;;;;3.63;1.13;;;;;;;;;;5094401;28;20048;-78
2023/10/14 13:57:19;;;;;;;6.43;1.20;;;;;;;;;;5095972;28;20099;-78
2023/10/14 13:59:45;;;;;;;5.70;1.23;;;;;;;;;;5078657;28;20059;-78
2023/10/14 14:02:10;;;;;;;4.90;0.85;;;;;;;;;;5094764;28;20112;-78
2023/10/14 14:04:36;;;;;;;4.63;1.30;;;;;;;;;;5072674;28;20032;-78
2023/10/14 14:07:01;;;;;;;9.90;1.30;;;;;;;;;;5074199;28;20029;-78
2023/10/14 14:09:30;;;;;;;4.13;1.10;;;;;;;;;;5075350;28;20052;-78
2023/10/14 14:11:56;;;;;;;6.38;1.20;;;;;;;;;;5073766;28;20033;-77
2023/10/14 14:14:22;;;;;;;5.53;1.17;;;;;;;;;;5074044;28;20029;-80
2023/10/14 14:16:51;;;;;;;6.55;1.48;;;;;;;;;;5073545;28;20078;-80
2023/10/14 14:19:19;;;;;;;;;;;;;;;;;;5058216;28;20036;-77
2023/10/14 14:21:47;;;;;;;4.85;0.90;;;;;;;;;;5074099;28;19918;-77
2023/10/14 14:24:14;;;;;;;;;;;;;;;;;;5072713;28;20045;-78
2023/10/14 14:26:40;;;;;;;5.90;1.60;;;;;;;;;;5057737;28;19935;-79
2023/10/14 14:29:10;;;;;;;4.97;1.27;;;;;;;;;;5072645;28;20033;-77
2023/10/14 14:31:35;;;;;;;5.50;1.33;;;;;;;;;;5055759;28;20114;-78
2023/10/14 14:34:01;;;;;;;6.47;1.42;;;;;;;;;;5071979;28;20062;-79
2023/10/14 14:36:26;;;;;;;7.75;1.38;;;;;;;;;;5090463;28;20494;-78
2023/10/14 14:38:54;;;;;;;6.53;1.40;;;;;;;;;;5093685;28;20052;-78
2023/10/14 14:41:25;;;;;;;7.10;1.23;;;;;;;;;;5077952;28;20032;-79
2023/10/14 14:43:55;;;;;;;4.15;0.95;;;;;;;;;;5093733;28;20036;-78
2023/10/14 14:46:21;;;;;;;8.82;1.70;;;;;;;;;;5094613;28;20491;-78
2023/10/14 14:48:49;;;;;;;10.23;1.40;;;;;;;;;;5093390;28;20032;-77
2023/10/14 14:51:15;;;;;;;9.80;1.90;;;;;;;;;;5092573;28;20059;-78
2023/10/14 14:53:41;;;;;;;8.43;1.50;;;;;;;;;;5094324;28;20032;-78
2023/10/14 14:56:09;;;;;;;5.75;1.10;;;;;;;;;;5093683;28;20028;-79
2023/10/14 14:58:36;;;;;;;9.05;1.30;;;;;;;;;;5076404;28;20031;-79
2023/10/14 15:01:02;;;;;;;5.70;1.20;;;;;;;;;;5093910;28;20075;-79
2023/10/14 15:03:29;;;;;;;13.38;1.38;;;;;;;;;;5084237;28;20060;-77
2023/10/14 15:05:55;;;;;;;6.10;1.38;;;;;;;;;;5071743;28;20043;-78
2023/10/14 15:08:23;;;;;;;6.32;1.40;;;;;;;;;;5072260;28;20024;-77
2023/10/14 15:10:49;;;;;;;6.90;1.50;;;;;;;;;;5072105;28;20033;-77
2023/10/14 15:13:16;;;;;;;10.77;1.77;;;;;;;;;;5074554;28;20366;-77
2023/10/14 15:15:43;;;;;;;7.47;1.50;;;;;;;;;;5071882;28;20032;-77
2023/10/14 15:18:10;;;;;;;10.45;1.60;;;;;;;;;;5072453;28;20509;-78